sensor_id;sensor_type;location;lat;lon;timestamp;P1;durP1;ratioP1;P2;durP2;ratioP2
20657;SDS011;10488;50.846;4.078;2023-03-31T00:00:57;23.33;;;4.68;;
20657;SDS011;10488;50.846;4.078;2023-03-31T00:03:24;22.20;;;2.80;;
20657;SDS011;10488;50.846;4.078;2023-03-31T00:05:55;17.60;;;3.35;;
20657;SDS011;10488;50.846;4.078;2023-03-31T00:08:22;16.98;;;3.60;;
20657;SDS011;10488;50.846;4.078;2023-03-31T00:10:48;17.65;;;2.72;;
20657;SDS011;10488;50.846;4.078;2023-03-31T00:13:13;21.33;;;3.55;;
20657;SDS011;10488;50.846;4.078;2023-03-31T00:15:40;15.77;;;3.60;;
20657;SDS011;10488;50.846;4.078;2023-03-31T00:18:05;18.33;;;3.05;;
20657;SDS011;10488;50.846;4.078;2023-03-31T00:20:31;14.80;;;3.33;;
20657;SDS011;10488;50.846;4.078;2023-03-31T00:22:57;17.27;;;3.33;;
20657;SDS011;10488;50.846;4.078;2023-03-31T00:25:25;15.10;;;2.67;;
20657;SDS011;10488;50.846;4.078;2023-03-31T00:27:51;21.58;;;3.85;;
20657;SDS011;10488;50.846;4.078;2023-03-31T00:30:17;15.07;;;3.00;;
20657;SDS011;10488;50.846;4.078;2023-03-31T00:32:43;16.45;;;2.88;;
20657;SDS011;10488;50.846;4.078;2023-03-31T00:35:09;13.68;;;2.20;;
20657;SDS011;10488;50.846;4.078;2023-03-31T00:37:35;11.30;;;1.95;;
20657;SDS011;10488;50.846;4.078;2023-03-31T00:40:01;9.80;;;3.08;;
20657;SDS011;10488;50.846;4.078;2023-03-31T00:42:38;19.90;;;2.80;;
20657;SDS011;10488;50.846;4.078;2023-03-31T00:48:13;17.58;;;3.40;;
20657;SDS011;10488;50.846;4.078;2023-03-31T00:50:47;18.80;;;3.13;;
20657;SDS011;10488;50.846;4.078;2023-03-31T00:53:21;17.58;;;3.15;;
20657;SDS011;10488;50.846;4.078;2023-03-31T00:55:52;19.55;;;3.25;;
20657;SDS011;10488;50.846;4.078;2023-03-31T00:58:21;18.05;;;2.92;;
20657;SDS011;10488;50.846;4.078;2023-03-31T01:00:52;13.32;;;3.05;;
20657;SDS011;10488;50.846;4.078;2023-03-31T01:03:19;16.60;;;2.80;;
20657;SDS011;10488;50.846;4.078;2023-03-31T01:05:50;24.40;;;3.03;;
20657;SDS011;10488;50.846;4.078;2023-03-31T01:08:20;15.02;;;2.75;;
20657;SDS011;10488;50.846;4.078;2023-03-31T01:10:50;10.48;;;2.72;;
20657;SDS011;10488;50.846;4.078;2023-03-31T01:13:23;13.40;;;2.55;;
20657;SDS011;10488;50.846;4.078;2023-03-31T01:15:50;21.70;;;3.20;;
20657;SDS011;10488;50.846;4.078;2023-03-31T01:18:16;11.70;;;2.75;;
20657;SDS011;10488;50.846;4.078;2023-03-31T01:32:16;6.72;;;2.20;;
20657;SDS011;10488;50.846;4.078;2023-03-31T01:40:38;8.32;;;2.00;;
20657;SDS011;10488;50.846;4.078;2023-03-31T01:46:10;16.63;;;4.22;;
20657;SDS011;10488;50.846;4.078;2023-03-31T01:54:36;17.98;;;4.57;;
20657;SDS011;10488;50.846;4.078;2023-03-31T01:57:12;16.58;;;4.32;;
20657;SDS011;10488;50.846;4.078;2023-03-31T02:00:01;14.13;;;3.90;;
20657;SDS011;10488;50.846;4.078;2023-03-31T02:02:36;9.95;;;2.78;;
20657;SDS011;10488;50.846;4.078;2023-03-31T02:05:14;14.75;;;2.67;;
20657;SDS011;10488;50.846;4.078;2023-03-31T02:07:48;16.10;;;2.30;;
20657;SDS011;10488;50.846;4.078;2023-03-31T02:10:24;9.60;;;2.53;;
20657;SDS011;10488;50.846;4.078;2023-03-31T02:12:53;15.73;;;2.53;;
20657;SDS011;10488;50.846;4.078;2023-03-31T02:15:22;14.88;;;2.55;;
20657;SDS011;10488;50.846;4.078;2023-03-31T02:17:52;13.63;;;2.75;;
20657;SDS011;10488;50.846;4.078;2023-03-31T02:20:20;8.82;;;2.20;;
20657;SDS011;10488;50.846;4.078;2023-03-31T02:22:51;10.95;;;2.00;;
20657;SDS011;10488;50.846;4.078;2023-03-31T02:25:21;13.18;;;2.33;;
20657;SDS011;10488;50.846;4.078;2023-03-31T02:27:59;10.25;;;1.70;;
20657;SDS011;10488;50.846;4.078;2023-03-31T02:30:56;10.85;;;2.60;;
20657;SDS011;10488;50.846;4.078;2023-03-31T02:33:37;14.27;;;2.42;;
20657;SDS011;10488;50.846;4.078;2023-03-31T02:36:02;9.73;;;2.47;;
20657;SDS011;10488;50.846;4.078;2023-03-31T02:38:30;13.10;;;2.30;;
20657;SDS011;10488;50.846;4.078;2023-03-31T02:40:59;12.88;;;2.67;;
20657;SDS011;10488;50.846;4.078;2023-03-31T02:43:25;8.52;;;2.90;;
20657;SDS011;10488;50.846;4.078;2023-03-31T02:45:51;14.48;;;2.85;;
20657;SDS011;10488;50.846;4.078;2023-03-31T03:10:55;19.38;;;5.03;;
20657;SDS011;10488;50.846;4.078;2023-03-31T03:13:59;17.60;;;5.72;;
20657;SDS011;10488;50.846;4.078;2023-03-31T03:16:53;13.75;;;3.70;;
20657;SDS011;10488;50.846;4.078;2023-03-31T03:19:24;19.75;;;3.38;;
20657;SDS011;10488;50.846;4.078;2023-03-31T03:21:50;15.02;;;3.38;;
20657;SDS011;10488;50.846;4.078;2023-03-31T03:24:16;13.20;;;2.55;;
20657;SDS011;10488;50.846;4.078;2023-03-31T03:26:43;6.13;;;2.15;;
20657;SDS011;10488;50.846;4.078;2023-03-31T03:29:10;11.70;;;2.17;;
20657;SDS011;10488;50.846;4.078;2023-03-31T03:31:41;8.15;;;2.47;;
20657;SDS011;10488;50.846;4.078;2023-03-31T03:34:07;7.70;;;1.50;;
20657;SDS011;10488;50.846;4.078;2023-03-31T03:36:37;8.60;;;2.13;;
20657;SDS011;10488;50.846;4.078;2023-03-31T03:39:03;10.38;;;1.90;;
20657;SDS011;10488;50.846;4.078;2023-03-31T03:41:30;8.73;;;1.90;;
20657;SDS011;10488;50.846;4.078;2023-03-31T03:43:57;7.68;;;1.92;;
20657;SDS011;10488;50.846;4.078;2023-03-31T03:46:24;6.85;;;1.30;;
20657;SDS011;10488;50.846;4.078;2023-03-31T03:48:50;3.42;;;0.93;;
20657;SDS011;10488;50.846;4.078;2023-03-31T03:51:16;5.10;;;0.80;;
20657;SDS011;10488;50.846;4.078;2023-03-31T03:53:42;5.20;;;0.65;;
20657;SDS011;10488;50.846;4.078;2023-03-31T03:56:07;3.17;;;0.40;;
20657;SDS011;10488;50.846;4.078;2023-03-31T03:58:33;3.60;;;0.50;;
20657;SDS011;10488;50.846;4.078;2023-03-31T04:00:58;0.75;;;0.28;;
20657;SDS011;10488;50.846;4.078;2023-03-31T04:03:24;1.85;;;0.30;;
20657;SDS011;10488;50.846;4.078;2023-03-31T04:05:50;0.35;;;0.30;;
20657;SDS011;10488;50.846;4.078;2023-03-31T04:08:16;3.25;;;0.60;;
20657;SDS011;10488;50.846;4.078;2023-03-31T04:10:45;3.17;;;0.60;;
20657;SDS011;10488;50.846;4.078;2023-03-31T04:13:13;1.30;;;0.47;;
20657;SDS011;10488;50.846;4.078;2023-03-31T04:15:39;5.57;;;0.80;;
20657;SDS011;10488;50.846;4.078;2023-03-31T04:18:06;4.63;;;0.55;;
20657;SDS011;10488;50.846;4.078;2023-03-31T04:20:35;6.82;;;0.95;;
20657;SDS011;10488;50.846;4.078;2023-03-31T04:23:02;3.78;;;0.77;;
20657;SDS011;10488;50.846;4.078;2023-03-31T04:25:34;4.13;;;0.70;;
20657;SDS011;10488;50.846;4.078;2023-03-31T04:28:02;4.22;;;0.93;;
20657;SDS011;10488;50.846;4.078;2023-03-31T04:30:31;4.78;;;1.13;;
20657;SDS011;10488;50.846;4.078;2023-03-31T04:32:58;6.30;;;1.42;;
20657;SDS011;10488;50.846;4.078;2023-03-31T04:35:26;3.95;;;1.20;;
20657;SDS011;10488;50.846;4.078;2023-03-31T04:38:06;6.43;;;1.33;;
20657;SDS011;10488;50.846;4.078;2023-03-31T04:40:33;10.85;;;1.70;;
20657;SDS011;10488;50.846;4.078;2023-03-31T04:42:59;8.23;;;1.65;;
20657;SDS011;10488;50.846;4.078;2023-03-31T04:45:25;11.25;;;2.05;;
20657;SDS011;10488;50.846;4.078;2023-03-31T04:47:51;8.82;;;1.83;;
20657;SDS011;10488;50.846;4.078;2023-03-31T04:50:17;10.88;;;2.08;;
20657;SDS011;10488;50.846;4.078;2023-03-31T04:52:43;13.27;;;2.13;;
20657;SDS011;10488;50.846;4.078;2023-03-31T04:55:08;12.43;;;2.25;;
20657;SDS011;10488;50.846;4.078;2023-03-31T04:57:34;10.50;;;2.55;;
20657;SDS011;10488;50.846;4.078;2023-03-31T05:00:01;13.88;;;2.58;;
20657;SDS011;10488;50.846;4.078;2023-03-31T05:02:31;21.60;;;2.65;;
20657;SDS011;10488;50.846;4.078;2023-03-31T05:04:57;17.00;;;2.53;;
20657;SDS011;10488;50.846;4.078;2023-03-31T05:07:22;15.40;;;2.63;;
20657;SDS011;10488;50.846;4.078;2023-03-31T05:09:48;15.07;;;2.63;;
20657;SDS011;10488;50.846;4.078;2023-03-31T05:12:13;7.82;;;2.40;;
20657;SDS011;10488;50.846;4.078;2023-03-31T05:14:39;11.52;;;2.58;;
20657;SDS011;10488;50.846;4.078;2023-03-31T05:17:05;11.85;;;2.55;;
20657;SDS011;10488;50.846;4.078;2023-03-31T05:19:31;15.45;;;2.47;;
20657;SDS011;10488;50.846;4.078;2023-03-31T05:21:56;14.93;;;2.20;;
20657;SDS011;10488;50.846;4.078;2023-03-31T05:24:22;11.25;;;2.67;;
20657;SDS011;10488;50.846;4.078;2023-03-31T05:26:48;9.60;;;2.70;;
20657;SDS011;10488;50.846;4.078;2023-03-31T05:29:20;18.95;;;3.00;;
20657;SDS011;10488;50.846;4.078;2023-03-31T05:31:48;15.80;;;2.50;;
20657;SDS011;10488;50.846;4.078;2023-03-31T05:34:14;14.98;;;3.22;;
20657;SDS011;10488;50.846;4.078;2023-03-31T05:36:41;15.55;;;3.03;;
20657;SDS011;10488;50.846;4.078;2023-03-31T05:39:12;15.43;;;2.85;;
20657;SDS011;10488;50.846;4.078;2023-03-31T05:41:38;13.98;;;3.10;;
20657;SDS011;10488;50.846;4.078;2023-03-31T05:44:04;14.50;;;2.92;;
20657;SDS011;10488;50.846;4.078;2023-03-31T05:46:30;18.23;;;3.30;;
20657;SDS011;10488;50.846;4.078;2023-03-31T05:48:56;16.98;;;2.60;;
20657;SDS011;10488;50.846;4.078;2023-03-31T05:51:22;18.58;;;3.33;;
20657;SDS011;10488;50.846;4.078;2023-03-31T05:53:48;12.27;;;2.88;;
20657;SDS011;10488;50.846;4.078;2023-03-31T05:56:14;11.00;;;2.53;;
20657;SDS011;10488;50.846;4.078;2023-03-31T05:58:40;16.88;;;3.10;;
20657;SDS011;10488;50.846;4.078;2023-03-31T06:01:09;13.00;;;2.60;;
20657;SDS011;10488;50.846;4.078;2023-03-31T06:03:38;12.98;;;2.60;;
20657;SDS011;10488;50.846;4.078;2023-03-31T06:06:08;15.73;;;3.35;;
20657;SDS011;10488;50.846;4.078;2023-03-31T06:08:35;17.20;;;3.78;;
20657;SDS011;10488;50.846;4.078;2023-03-31T06:11:05;15.70;;;3.67;;
20657;SDS011;10488;50.846;4.078;2023-03-31T06:13:32;15.38;;;3.22;;
20657;SDS011;10488;50.846;4.078;2023-03-31T06:15:59;9.23;;;3.00;;
20657;SDS011;10488;50.846;4.078;2023-03-31T06:18:25;17.80;;;3.03;;
20657;SDS011;10488;50.846;4.078;2023-03-31T06:20:52;11.75;;;2.63;;
20657;SDS011;10488;50.846;4.078;2023-03-31T06:23:19;18.65;;;3.17;;
20657;SDS011;10488;50.846;4.078;2023-03-31T06:25:45;17.38;;;3.38;;
20657;SDS011;10488;50.846;4.078;2023-03-31T06:28:10;11.13;;;2.90;;
20657;SDS011;10488;50.846;4.078;2023-03-31T06:30:36;20.77;;;3.22;;
20657;SDS011;10488;50.846;4.078;2023-03-31T06:33:02;9.95;;;2.72;;
20657;SDS011;10488;50.846;4.078;2023-03-31T06:35:28;17.50;;;3.47;;
20657;SDS011;10488;50.846;4.078;2023-03-31T06:37:53;19.15;;;3.50;;
20657;SDS011;10488;50.846;4.078;2023-03-31T06:40:19;17.00;;;3.50;;
20657;SDS011;10488;50.846;4.078;2023-03-31T06:42:45;22.02;;;3.28;;
20657;SDS011;10488;50.846;4.078;2023-03-31T06:45:10;17.70;;;3.55;;
20657;SDS011;10488;50.846;4.078;2023-03-31T06:47:36;13.20;;;3.20;;
20657;SDS011;10488;50.846;4.078;2023-03-31T06:50:05;12.25;;;2.40;;
20657;SDS011;10488;50.846;4.078;2023-03-31T06:52:32;13.07;;;3.13;;
20657;SDS011;10488;50.846;4.078;2023-03-31T06:54:59;18.40;;;3.45;;
20657;SDS011;10488;50.846;4.078;2023-03-31T06:57:25;15.18;;;3.60;;
20657;SDS011;10488;50.846;4.078;2023-03-31T06:59:51;17.13;;;3.60;;
20657;SDS011;10488;50.846;4.078;2023-03-31T07:02:17;14.70;;;3.53;;
20657;SDS011;10488;50.846;4.078;2023-03-31T07:04:44;17.60;;;3.88;;
20657;SDS011;10488;50.846;4.078;2023-03-31T07:07:09;20.55;;;3.30;;
20657;SDS011;10488;50.846;4.078;2023-03-31T07:09:35;15.32;;;3.80;;
20657;SDS011;10488;50.846;4.078;2023-03-31T07:12:01;14.15;;;3.28;;
20657;SDS011;10488;50.846;4.078;2023-03-31T07:14:30;12.30;;;3.40;;
20657;SDS011;10488;50.846;4.078;2023-03-31T07:16:57;14.57;;;3.33;;
20657;SDS011;10488;50.846;4.078;2023-03-31T07:19:23;13.38;;;3.97;;
20657;SDS011;10488;50.846;4.078;2023-03-31T07:21:49;22.15;;;4.22;;
20657;SDS011;10488;50.846;4.078;2023-03-31T07:24:15;16.52;;;3.83;;
20657;SDS011;10488;50.846;4.078;2023-03-31T07:26:41;20.13;;;3.47;;
20657;SDS011;10488;50.846;4.078;2023-03-31T07:29:07;14.50;;;3.90;;
20657;SDS011;10488;50.846;4.078;2023-03-31T07:31:33;17.63;;;3.10;;
20657;SDS011;10488;50.846;4.078;2023-03-31T07:33:59;17.50;;;4.28;;
20657;SDS011;10488;50.846;4.078;2023-03-31T07:36:26;17.55;;;4.00;;
20657;SDS011;10488;50.846;4.078;2023-03-31T07:38:52;19.60;;;4.55;;
20657;SDS011;10488;50.846;4.078;2023-03-31T07:41:18;17.80;;;4.05;;
20657;SDS011;10488;50.846;4.078;2023-03-31T07:43:45;20.83;;;3.70;;
20657;SDS011;10488;50.846;4.078;2023-03-31T07:46:15;19.52;;;4.22;;
20657;SDS011;10488;50.846;4.078;2023-03-31T07:48:42;14.55;;;3.53;;
20657;SDS011;10488;50.846;4.078;2023-03-31T07:51:08;25.77;;;4.45;;
20657;SDS011;10488;50.846;4.078;2023-03-31T07:53:33;21.92;;;3.10;;
20657;SDS011;10488;50.846;4.078;2023-03-31T07:56:01;24.15;;;4.47;;
20657;SDS011;10488;50.846;4.078;2023-03-31T07:58:26;16.13;;;3.72;;
20657;SDS011;10488;50.846;4.078;2023-03-31T08:00:53;19.17;;;3.75;;
20657;SDS011;10488;50.846;4.078;2023-03-31T08:03:18;23.25;;;4.30;;
20657;SDS011;10488;50.846;4.078;2023-03-31T08:05:44;26.95;;;4.82;;
20657;SDS011;10488;50.846;4.078;2023-03-31T08:08:10;24.15;;;4.18;;
20657;SDS011;10488;50.846;4.078;2023-03-31T08:10:35;19.58;;;3.78;;
20657;SDS011;10488;50.846;4.078;2023-03-31T08:13:01;18.02;;;3.67;;
20657;SDS011;10488;50.846;4.078;2023-03-31T08:15:27;14.52;;;3.90;;
20657;SDS011;10488;50.846;4.078;2023-03-31T08:17:52;20.98;;;3.95;;
20657;SDS011;10488;50.846;4.078;2023-03-31T08:20:18;16.63;;;4.63;;
20657;SDS011;10488;50.846;4.078;2023-03-31T08:22:44;23.08;;;4.85;;
20657;SDS011;10488;50.846;4.078;2023-03-31T08:25:10;18.55;;;3.50;;
20657;SDS011;10488;50.846;4.078;2023-03-31T08:27:36;22.63;;;3.80;;
20657;SDS011;10488;50.846;4.078;2023-03-31T08:30:04;20.40;;;3.53;;
20657;SDS011;10488;50.846;4.078;2023-03-31T08:32:32;15.43;;;3.85;;
20657;SDS011;10488;50.846;4.078;2023-03-31T08:34:58;18.20;;;3.33;;
20657;SDS011;10488;50.846;4.078;2023-03-31T08:37:24;13.23;;;3.33;;
20657;SDS011;10488;50.846;4.078;2023-03-31T08:39:52;21.98;;;4.03;;
20657;SDS011;10488;50.846;4.078;2023-03-31T08:42:24;13.80;;;3.47;;
20657;SDS011;10488;50.846;4.078;2023-03-31T08:44:57;18.38;;;3.45;;
20657;SDS011;10488;50.846;4.078;2023-03-31T08:47:38;17.60;;;3.67;;
20657;SDS011;10488;50.846;4.078;2023-03-31T08:50:14;24.92;;;3.63;;
20657;SDS011;10488;50.846;4.078;2023-03-31T08:53:03;24.10;;;3.63;;
20657;SDS011;10488;50.846;4.078;2023-03-31T08:56:02;14.30;;;3.47;;
20657;SDS011;10488;50.846;4.078;2023-03-31T09:06:38;19.92;;;3.72;;
20657;SDS011;10488;50.846;4.078;2023-03-31T09:09:27;17.65;;;3.70;;
20657;SDS011;10488;50.846;4.078;2023-03-31T09:12:19;27.45;;;4.97;;
20657;SDS011;10488;50.846;4.078;2023-03-31T09:15:13;23.30;;;4.30;;
20657;SDS011;10488;50.846;4.078;2023-03-31T09:17:47;23.52;;;3.75;;
20657;SDS011;10488;50.846;4.078;2023-03-31T09:20:17;17.60;;;4.20;;
20657;SDS011;10488;50.846;4.078;2023-03-31T09:22:51;28.48;;;5.57;;
20657;SDS011;10488;50.846;4.078;2023-03-31T09:25:26;29.08;;;4.70;;
20657;SDS011;10488;50.846;4.078;2023-03-31T09:27:56;20.17;;;4.28;;
20657;SDS011;10488;50.846;4.078;2023-03-31T09:30:25;26.13;;;4.40;;
20657;SDS011;10488;50.846;4.078;2023-03-31T09:32:52;25.58;;;3.75;;
20657;SDS011;10488;50.846;4.078;2023-03-31T09:35:39;20.38;;;4.20;;
20657;SDS011;10488;50.846;4.078;2023-03-31T09:38:08;22.85;;;4.55;;
20657;SDS011;10488;50.846;4.078;2023-03-31T09:40:35;22.17;;;4.80;;
20657;SDS011;10488;50.846;4.078;2023-03-31T09:45:32;19.30;;;4.70;;
20657;SDS011;10488;50.846;4.078;2023-03-31T09:48:02;28.27;;;4.75;;
20657;SDS011;10488;50.846;4.078;2023-03-31T09:51:21;25.27;;;4.32;;
20657;SDS011;10488;50.846;4.078;2023-03-31T09:53:31;24.10;;;4.60;;
20657;SDS011;10488;50.846;4.078;2023-03-31T09:59:16;23.75;;;3.67;;
20657;SDS011;10488;50.846;4.078;2023-03-31T10:01:44;20.55;;;4.07;;
20657;SDS011;10488;50.846;4.078;2023-03-31T10:04:16;20.00;;;4.05;;
20657;SDS011;10488;50.846;4.078;2023-03-31T10:06:45;21.27;;;4.40;;
20657;SDS011;10488;50.846;4.078;2023-03-31T10:09:13;21.15;;;3.97;;
20657;SDS011;10488;50.846;4.078;2023-03-31T10:11:50;16.75;;;3.53;;
20657;SDS011;10488;50.846;4.078;2023-03-31T10:14:26;20.15;;;4.05;;
20657;SDS011;10488;50.846;4.078;2023-03-31T10:16:58;23.48;;;3.95;;
20657;SDS011;10488;50.846;4.078;2023-03-31T10:19:31;21.45;;;4.28;;
20657;SDS011;10488;50.846;4.078;2023-03-31T10:22:02;18.10;;;3.72;;
20657;SDS011;10488;50.846;4.078;2023-03-31T10:24:43;26.45;;;4.28;;
20657;SDS011;10488;50.846;4.078;2023-03-31T10:29:52;23.30;;;3.92;;
20657;SDS011;10488;50.846;4.078;2023-03-31T10:35:03;22.30;;;4.05;;
20657;SDS011;10488;50.846;4.078;2023-03-31T10:37:32;20.48;;;4.15;;
20657;SDS011;10488;50.846;4.078;2023-03-31T10:40:01;17.73;;;4.32;;
20657;SDS011;10488;50.846;4.078;2023-03-31T10:42:33;16.95;;;3.33;;
20657;SDS011;10488;50.846;4.078;2023-03-31T10:45:13;13.93;;;3.47;;
20657;SDS011;10488;50.846;4.078;2023-03-31T10:47:56;15.57;;;3.47;;
20657;SDS011;10488;50.846;4.078;2023-03-31T10:50:28;11.20;;;2.72;;
20657;SDS011;10488;50.846;4.078;2023-03-31T10:53:10;16.45;;;3.65;;
20657;SDS011;10488;50.846;4.078;2023-03-31T10:58:27;16.25;;;3.80;;
20657;SDS011;10488;50.846;4.078;2023-03-31T11:06:38;18.73;;;2.92;;
20657;SDS011;10488;50.846;4.078;2023-03-31T11:15:20;18.95;;;3.20;;
20657;SDS011;10488;50.846;4.078;2023-03-31T11:31:39;8.27;;;2.20;;
20657;SDS011;10488;50.846;4.078;2023-03-31T11:34:41;12.90;;;3.75;;
20657;SDS011;10488;50.846;4.078;2023-03-31T11:42:58;12.73;;;2.30;;
20657;SDS011;10488;50.846;4.078;2023-03-31T11:45:33;15.80;;;2.80;;
20657;SDS011;10488;50.846;4.078;2023-03-31T11:48:30;13.90;;;2.67;;
20657;SDS011;10488;50.846;4.078;2023-03-31T11:50:57;10.77;;;2.17;;
20657;SDS011;10488;50.846;4.078;2023-03-31T11:53:29;14.73;;;2.55;;
20657;SDS011;10488;50.846;4.078;2023-03-31T11:55:58;14.18;;;2.55;;
20657;SDS011;10488;50.846;4.078;2023-03-31T11:58:34;7.78;;;2.13;;
20657;SDS011;10488;50.846;4.078;2023-03-31T12:01:27;8.55;;;1.92;;
20657;SDS011;10488;50.846;4.078;2023-03-31T12:06:43;11.68;;;2.75;;
20657;SDS011;10488;50.846;4.078;2023-03-31T12:09:28;7.85;;;2.42;;
20657;SDS011;10488;50.846;4.078;2023-03-31T12:12:09;7.22;;;2.08;;
20657;SDS011;10488;50.846;4.078;2023-03-31T12:14:52;11.27;;;2.20;;
20657;SDS011;10488;50.846;4.078;2023-03-31T12:17:26;12.90;;;2.67;;
20657;SDS011;10488;50.846;4.078;2023-03-31T12:19:57;9.10;;;2.00;;
20657;SDS011;10488;50.846;4.078;2023-03-31T12:22:34;7.50;;;1.80;;
20657;SDS011;10488;50.846;4.078;2023-03-31T12:25:12;9.30;;;2.20;;
20657;SDS011;10488;50.846;4.078;2023-03-31T12:27:39;7.90;;;1.85;;
20657;SDS011;10488;50.846;4.078;2023-03-31T12:30:09;7.43;;;2.08;;
20657;SDS011;10488;50.846;4.078;2023-03-31T12:32:40;7.60;;;1.65;;
20657;SDS011;10488;50.846;4.078;2023-03-31T12:40:30;10.48;;;2.00;;
20657;SDS011;10488;50.846;4.078;2023-03-31T12:43:12;4.65;;;1.83;;
20657;SDS011;10488;50.846;4.078;2023-03-31T12:59:30;7.88;;;1.40;;
20657;SDS011;10488;50.846;4.078;2023-03-31T13:02:25;7.25;;;0.95;;
20657;SDS011;10488;50.846;4.078;2023-03-31T13:04:50;5.88;;;0.80;;
20657;SDS011;10488;50.846;4.078;2023-03-31T13:09:55;5.07;;;0.50;;
20657;SDS011;10488;50.846;4.078;2023-03-31T13:12:22;6.53;;;1.67;;
20657;SDS011;10488;50.846;4.078;2023-03-31T13:14:52;1.27;;;0.65;;
20657;SDS011;10488;50.846;4.078;2023-03-31T13:17:33;2.15;;;0.60;;
20657;SDS011;10488;50.846;4.078;2023-03-31T13:23:02;2.83;;;0.80;;
20657;SDS011;10488;50.846;4.078;2023-03-31T13:27:54;3.08;;;0.60;;
20657;SDS011;10488;50.846;4.078;2023-03-31T13:35:38;1.60;;;0.50;;
20657;SDS011;10488;50.846;4.078;2023-03-31T14:05:54;1.52;;;0.30;;
20657;SDS011;10488;50.846;4.078;2023-03-31T14:13:41;0.75;;;0.32;;
20657;SDS011;10488;50.846;4.078;2023-03-31T14:16:06;2.10;;;0.50;;
20657;SDS011;10488;50.846;4.078;2023-03-31T14:18:33;3.53;;;0.50;;
20657;SDS011;10488;50.846;4.078;2023-03-31T14:23:47;1.50;;;0.30;;
20657;SDS011;10488;50.846;4.078;2023-03-31T14:31:44;2.67;;;0.50;;
20657;SDS011;10488;50.846;4.078;2023-03-31T14:37:23;0.50;;;0.20;;
20657;SDS011;10488;50.846;4.078;2023-03-31T14:39:52;1.23;;;0.40;;
20657;SDS011;10488;50.846;4.078;2023-03-31T14:42:28;2.53;;;0.70;;
20657;SDS011;10488;50.846;4.078;2023-03-31T14:45:02;1.02;;;0.40;;
20657;SDS011;10488;50.846;4.078;2023-03-31T14:47:30;2.08;;;0.38;;
20657;SDS011;10488;50.846;4.078;2023-03-31T14:50:07;2.03;;;0.40;;
20657;SDS011;10488;50.846;4.078;2023-03-31T14:52:38;1.13;;;0.40;;
20657;SDS011;10488;50.846;4.078;2023-03-31T14:55:04;1.80;;;0.55;;
20657;SDS011;10488;50.846;4.078;2023-03-31T14:57:31;2.63;;;0.77;;
20657;SDS011;10488;50.846;4.078;2023-03-31T15:00:02;3.75;;;0.98;;
20657;SDS011;10488;50.846;4.078;2023-03-31T15:02:32;4.68;;;0.77;;
20657;SDS011;10488;50.846;4.078;2023-03-31T15:05:02;3.33;;;0.88;;
20657;SDS011;10488;50.846;4.078;2023-03-31T15:07:29;4.45;;;0.93;;
20657;SDS011;10488;50.846;4.078;2023-03-31T15:09:55;4.82;;;1.05;;
20657;SDS011;10488;50.846;4.078;2023-03-31T15:12:21;3.17;;;1.23;;
20657;SDS011;10488;50.846;4.078;2023-03-31T15:14:51;5.45;;;1.63;;
20657;SDS011;10488;50.846;4.078;2023-03-31T15:17:24;5.70;;;1.10;;
20657;SDS011;10488;50.846;4.078;2023-03-31T15:19:57;6.55;;;1.20;;
20657;SDS011;10488;50.846;4.078;2023-03-31T15:22:26;1.92;;;0.95;;
20657;SDS011;10488;50.846;4.078;2023-03-31T15:24:54;5.68;;;1.27;;
20657;SDS011;10488;50.846;4.078;2023-03-31T15:30:02;8.48;;;2.83;;
20657;SDS011;10488;50.846;4.078;2023-03-31T15:32:34;9.15;;;3.03;;
20657;SDS011;10488;50.846;4.078;2023-03-31T15:35:01;8.57;;;2.65;;
20657;SDS011;10488;50.846;4.078;2023-03-31T15:37:38;6.95;;;1.63;;
20657;SDS011;10488;50.846;4.078;2023-03-31T15:40:14;7.95;;;1.80;;
20657;SDS011;10488;50.846;4.078;2023-03-31T15:42:47;10.05;;;2.30;;
20657;SDS011;10488;50.846;4.078;2023-03-31T15:47:54;7.45;;;1.33;;
20657;SDS011;10488;50.846;4.078;2023-03-31T15:50:22;7.50;;;1.55;;
20657;SDS011;10488;50.846;4.078;2023-03-31T15:52:52;5.13;;;1.33;;
20657;SDS011;10488;50.846;4.078;2023-03-31T15:58:03;6.05;;;1.73;;
20657;SDS011;10488;50.846;4.078;2023-03-31T16:03:02;4.22;;;1.33;;
20657;SDS011;10488;50.846;4.078;2023-03-31T16:05:45;3.55;;;1.40;;
20657;SDS011;10488;50.846;4.078;2023-03-31T16:10:54;8.48;;;2.42;;
20657;SDS011;10488;50.846;4.078;2023-03-31T16:13:25;9.45;;;2.58;;
20657;SDS011;10488;50.846;4.078;2023-03-31T16:15:52;14.20;;;2.55;;
20657;SDS011;10488;50.846;4.078;2023-03-31T16:20:56;14.43;;;2.65;;
20657;SDS011;10488;50.846;4.078;2023-03-31T16:23:25;14.48;;;3.28;;
20657;SDS011;10488;50.846;4.078;2023-03-31T16:25:56;12.77;;;3.15;;
20657;SDS011;10488;50.846;4.078;2023-03-31T16:28:23;11.25;;;2.83;;
20657;SDS011;10488;50.846;4.078;2023-03-31T16:30:52;15.90;;;2.45;;
20657;SDS011;10488;50.846;4.078;2023-03-31T16:33:19;12.35;;;2.38;;
20657;SDS011;10488;50.846;4.078;2023-03-31T16:35:48;10.38;;;2.65;;
20657;SDS011;10488;50.846;4.078;2023-03-31T16:38:17;20.35;;;4.75;;
20657;SDS011;10488;50.846;4.078;2023-03-31T16:40:45;15.63;;;3.42;;
20657;SDS011;10488;50.846;4.078;2023-03-31T16:45:40;16.17;;;4.85;;
20657;SDS011;10488;50.846;4.078;2023-03-31T16:48:09;13.88;;;3.50;;
20657;SDS011;10488;50.846;4.078;2023-03-31T16:50:34;14.27;;;3.00;;
20657;SDS011;10488;50.846;4.078;2023-03-31T16:53:01;12.98;;;2.45;;
20657;SDS011;10488;50.846;4.078;2023-03-31T16:55:29;11.48;;;2.30;;
20657;SDS011;10488;50.846;4.078;2023-03-31T16:57:58;12.85;;;2.63;;
20657;SDS011;10488;50.846;4.078;2023-03-31T17:00:27;14.07;;;2.88;;
20657;SDS011;10488;50.846;4.078;2023-03-31T17:02:54;14.48;;;2.67;;
20657;SDS011;10488;50.846;4.078;2023-03-31T17:05:21;11.65;;;1.98;;
20657;SDS011;10488;50.846;4.078;2023-03-31T17:07:47;13.98;;;3.08;;
20657;SDS011;10488;50.846;4.078;2023-03-31T17:10:12;13.10;;;3.05;;
20657;SDS011;10488;50.846;4.078;2023-03-31T17:12:38;7.13;;;2.53;;
20657;SDS011;10488;50.846;4.078;2023-03-31T17:15:04;19.55;;;4.00;;
20657;SDS011;10488;50.846;4.078;2023-03-31T17:17:30;6.40;;;2.17;;
20657;SDS011;10488;50.846;4.078;2023-03-31T17:19:56;12.00;;;3.10;;
20657;SDS011;10488;50.846;4.078;2023-03-31T17:22:23;12.95;;;2.67;;
20657;SDS011;10488;50.846;4.078;2023-03-31T17:24:49;18.05;;;2.58;;
20657;SDS011;10488;50.846;4.078;2023-03-31T17:27:20;13.38;;;3.05;;
20657;SDS011;10488;50.846;4.078;2023-03-31T17:29:46;13.18;;;2.72;;
20657;SDS011;10488;50.846;4.078;2023-03-31T17:32:12;12.20;;;2.45;;
20657;SDS011;10488;50.846;4.078;2023-03-31T17:34:39;9.93;;;2.85;;
20657;SDS011;10488;50.846;4.078;2023-03-31T17:37:05;16.40;;;3.60;;
20657;SDS011;10488;50.846;4.078;2023-03-31T17:39:30;19.35;;;3.10;;
20657;SDS011;10488;50.846;4.078;2023-03-31T17:41:56;15.93;;;4.03;;
20657;SDS011;10488;50.846;4.078;2023-03-31T17:44:22;22.95;;;4.10;;
20657;SDS011;10488;50.846;4.078;2023-03-31T17:46:48;21.67;;;3.85;;
20657;SDS011;10488;50.846;4.078;2023-03-31T17:49:13;13.95;;;2.78;;
20657;SDS011;10488;50.846;4.078;2023-03-31T17:51:39;21.02;;;3.60;;
20657;SDS011;10488;50.846;4.078;2023-03-31T17:54:06;25.42;;;4.13;;
20657;SDS011;10488;50.846;4.078;2023-03-31T17:56:32;16.67;;;4.13;;
20657;SDS011;10488;50.846;4.078;2023-03-31T17:58:58;22.00;;;3.70;;
20657;SDS011;10488;50.846;4.078;2023-03-31T18:01:24;13.95;;;3.95;;
20657;SDS011;10488;50.846;4.078;2023-03-31T18:03:50;20.85;;;3.65;;
20657;SDS011;10488;50.846;4.078;2023-03-31T18:06:15;18.90;;;3.72;;
20657;SDS011;10488;50.846;4.078;2023-03-31T18:08:41;15.10;;;3.08;;
20657;SDS011;10488;50.846;4.078;2023-03-31T18:11:08;21.13;;;4.07;;
20657;SDS011;10488;50.846;4.078;2023-03-31T18:13:34;21.17;;;3.35;;
20657;SDS011;10488;50.846;4.078;2023-03-31T18:16:00;18.30;;;4.05;;